createdAt,value
2024-04-18T00:01:40.681Z,23.90
2024-04-18T00:04:07.938Z,22.63
2024-04-18T00:06:35.236Z,23.58
2024-04-18T00:09:03.108Z,23.45
2024-04-18T00:11:30.647Z,24.02
2024-04-18T00:13:57.868Z,24.30
2024-04-18T00:16:26.217Z,24.25
2024-04-18T00:18:53.912Z,23.95
2024-04-18T00:21:21.148Z,23.70
2024-04-18T00:23:48.292Z,24.27
2024-04-18T00:26:15.448Z,25.25
2024-04-18T00:28:42.573Z,24.23
2024-04-18T00:31:09.729Z,24.67
2024-04-18T00:33:36.890Z,24.35
2024-04-18T00:36:06.978Z,24.33
2024-04-18T00:38:35.949Z,23.58
2024-04-18T00:41:03.550Z,27.30
2024-04-18T00:43:30.748Z,24.02
2024-04-18T00:45:59.042Z,25.10
2024-04-18T00:48:27.417Z,23.65
2024-04-18T00:51:03.671Z,24.45
2024-04-18T00:53:32.102Z,24.52
2024-04-18T00:55:59.507Z,24.08
2024-04-18T00:58:27.547Z,23.45
2024-04-18T01:00:55.338Z,23.55
2024-04-18T01:03:22.795Z,23.35
2024-04-18T01:05:50.727Z,24.33
2024-04-18T01:08:18.196Z,23.80
2024-04-18T01:10:45.356Z,26.15
2024-04-18T01:13:12.497Z,25.73
2024-04-18T01:15:39.759Z,25.98
2024-04-18T01:18:06.982Z,25.67
2024-04-18T01:20:34.374Z,25.30
2024-04-18T01:23:01.542Z,26.30
2024-04-18T01:25:28.719Z,25.65
2024-04-18T01:27:55.867Z,26.42
2024-04-18T01:30:23.028Z,26.35
2024-04-18T01:32:50.311Z,31.15
2024-04-18T01:35:17.601Z,28.33
2024-04-18T01:37:44.822Z,28.60
2024-04-18T01:40:11.966Z,30.63
2024-04-18T01:42:39.206Z,29.60
2024-04-18T01:45:06.999Z,28.08
2024-04-18T01:47:34.309Z,26.75
2024-04-18T01:50:01.690Z,26.25
2024-04-18T01:52:28.812Z,26.02
2024-04-18T01:54:56.000Z,26.38
2024-04-18T01:57:23.263Z,26.05
2024-04-18T01:59:50.433Z,26.75
2024-04-18T02:02:17.729Z,26.65
2024-04-18T02:04:44.924Z,28.52
2024-04-18T02:07:12.210Z,26.13
2024-04-18T02:09:39.404Z,27.23
2024-04-18T02:12:06.635Z,28.58
2024-04-18T02:14:33.761Z,27.55
2024-04-18T02:17:02.216Z,27.17
2024-04-18T02:19:29.594Z,27.60
2024-04-18T02:21:58.046Z,27.52
2024-04-18T02:24:25.313Z,27.77
2024-04-18T02:26:52.544Z,27.98
2024-04-18T02:29:19.805Z,29.13
2024-04-18T02:31:47.034Z,27.02
2024-04-18T02:34:14.238Z,32.80
2024-04-18T02:36:41.793Z,29.90
2024-04-18T02:39:08.917Z,32.25
2024-04-18T02:41:36.113Z,28.00
2024-04-18T02:44:03.283Z,30.70
2024-04-18T02:46:30.476Z,28.48
2024-04-18T02:48:57.759Z,30.40
2024-04-18T02:51:25.108Z,28.17
2024-04-18T02:53:52.297Z,29.25
2024-04-18T02:56:19.437Z,32.60
2024-04-18T02:58:47.691Z,28.20
2024-04-18T03:01:14.966Z,32.13
2024-04-18T03:03:42.302Z,31.23
2024-04-18T03:06:09.640Z,28.83
2024-04-18T03:08:36.795Z,33.45
2024-04-18T03:11:04.078Z,29.60
2024-04-18T03:13:31.253Z,27.52
2024-04-18T03:15:58.410Z,29.55
2024-04-18T03:18:25.621Z,28.85
2024-04-18T03:20:54.281Z,29.33
2024-04-18T03:23:21.686Z,30.75
2024-04-18T03:25:51.035Z,29.58
2024-04-18T03:28:18.353Z,29.25
2024-04-18T03:30:45.704Z,29.45
2024-04-18T03:33:13.228Z,29.42
2024-04-18T03:35:40.917Z,30.02
2024-04-18T03:38:08.148Z,28.55
2024-04-18T03:40:36.228Z,27.58
2024-04-18T03:43:03.803Z,28.75
2024-04-18T03:45:31.600Z,27.23
2024-04-18T03:47:59.030Z,28.05
2024-04-18T03:50:26.359Z,27.80
2024-04-18T03:52:53.474Z,28.27
2024-04-18T03:55:20.703Z,26.70
2024-04-18T03:57:47.864Z,28.10
2024-04-18T04:00:15.200Z,28.85
2024-04-18T04:02:42.484Z,25.33
2024-04-18T04:05:09.798Z,27.77
2024-04-18T04:07:36.918Z,28.65
2024-04-18T04:10:04.241Z,27.73
2024-04-18T04:12:31.496Z,36.13
2024-04-18T04:14:58.619Z,28.38
2024-04-18T04:17:25.868Z,29.35
2024-04-18T04:19:53.415Z,26.65
2024-04-18T04:22:20.973Z,26.90
2024-04-18T04:24:48.211Z,28.00
2024-04-18T04:27:15.743Z,27.70
2024-04-18T04:29:43.141Z,27.17
2024-04-18T04:32:22.113Z,29.55
2024-04-18T04:34:51.789Z,29.70
2024-04-18T04:37:21.499Z,27.98
2024-04-18T04:39:51.573Z,27.02
2024-04-18T04:42:18.823Z,30.42
2024-04-18T04:44:46.098Z,30.77
2024-04-18T04:47:13.598Z,30.25
2024-04-18T04:49:40.773Z,30.77
2024-04-18T04:52:08.525Z,31.08
2024-04-18T04:54:35.761Z,32.05
2024-04-18T04:57:02.965Z,30.42
2024-04-18T04:59:30.255Z,29.70
2024-04-18T05:01:57.458Z,30.60
2024-04-18T05:04:24.618Z,32.28
2024-04-18T05:06:51.892Z,32.45
2024-04-18T05:09:21.604Z,30.27
2024-04-18T05:11:49.186Z,30.80
2024-04-18T05:14:16.629Z,34.33
2024-04-18T05:16:43.823Z,30.17
2024-04-18T05:19:11.556Z,31.35
2024-04-18T05:21:39.071Z,31.38
2024-04-18T05:24:07.590Z,29.17
2024-04-18T05:26:34.752Z,28.60
2024-04-18T05:29:20.398Z,28.73
2024-04-18T05:31:48.755Z,28.50
2024-04-18T05:34:16.953Z,28.80
2024-04-18T05:36:47.275Z,26.83
2024-04-18T05:39:14.626Z,29.38
2024-04-18T05:41:41.747Z,29.50
2024-04-18T05:44:08.981Z,30.13
2024-04-18T05:46:36.138Z,31.10
2024-04-18T05:49:03.267Z,32.85
2024-04-18T05:51:30.484Z,28.92
2024-04-18T05:53:57.637Z,26.73
2024-04-18T05:56:24.793Z,27.33
2024-04-18T05:58:51.938Z,27.50
2024-04-18T06:01:19.339Z,26.60
2024-04-18T06:03:46.579Z,25.17
2024-04-18T06:06:15.946Z,23.83
2024-04-18T06:08:43.015Z,24.77
2024-04-18T06:11:10.225Z,23.98
2024-04-18T06:13:40.361Z,22.92
2024-04-18T06:16:07.654Z,24.05
2024-04-18T06:18:36.124Z,23.38
2024-04-18T06:21:03.583Z,23.30
2024-04-18T06:23:30.803Z,23.23
2024-04-18T06:25:58.087Z,22.95
2024-04-18T06:28:25.853Z,22.80
2024-04-18T06:30:53.566Z,21.80
2024-04-18T06:33:20.857Z,21.83
2024-04-18T06:35:48.123Z,21.23
2024-04-18T06:38:15.321Z,20.30
2024-04-18T06:40:42.513Z,20.55
2024-04-18T06:43:09.722Z,20.35
2024-04-18T06:45:39.840Z,21.13
2024-04-18T06:48:09.975Z,21.42
2024-04-18T06:50:40.785Z,21.58
2024-04-18T06:53:08.743Z,22.00
2024-04-18T06:55:37.424Z,22.08
2024-04-18T06:58:04.766Z,22.38
2024-04-18T07:00:32.094Z,22.42
2024-04-18T07:02:59.296Z,22.42
2024-04-18T07:05:26.532Z,22.13
2024-04-18T07:07:55.055Z,22.35
2024-04-18T07:10:22.290Z,21.63
2024-04-18T07:12:49.582Z,22.08
2024-04-18T07:15:16.930Z,21.90
2024-04-18T07:17:44.986Z,21.52
2024-04-18T07:20:12.220Z,21.75
2024-04-18T07:22:40.711Z,22.55
2024-04-18T07:25:08.003Z,22.25
2024-04-18T07:27:36.317Z,21.33
2024-04-18T07:30:03.715Z,21.77
2024-04-18T07:32:31.070Z,22.00
2024-04-18T07:34:58.360Z,23.08
2024-04-18T07:37:29.026Z,22.25
2024-04-18T07:39:57.846Z,26.33
2024-04-18T07:42:25.093Z,21.50
2024-04-18T07:44:52.280Z,21.15
2024-04-18T07:47:19.568Z,20.10
2024-04-18T07:49:49.349Z,20.75
2024-04-18T07:52:17.483Z,20.77
2024-04-18T07:54:45.772Z,20.73
2024-04-18T07:57:14.111Z,20.83
2024-04-18T07:59:42.553Z,21.58
2024-04-18T08:02:12.140Z,21.08
2024-04-18T08:07:13.709Z,20.40
2024-04-18T08:09:46.115Z,21.30
2024-04-18T08:12:24.267Z,21.15
2024-04-18T08:15:00.668Z,20.85
2024-04-18T08:17:31.046Z,22.02
2024-04-18T08:19:58.295Z,21.50
2024-04-18T08:22:26.326Z,21.80
2024-04-18T08:24:53.546Z,21.83
2024-04-18T08:27:20.740Z,21.38
2024-04-18T08:29:48.011Z,21.90
2024-04-18T08:32:15.313Z,22.10
2024-04-18T08:34:44.300Z,22.10
2024-04-18T08:37:12.305Z,21.60
2024-04-18T08:39:39.576Z,21.85
2024-04-18T08:42:11.663Z,21.48
2024-04-18T08:44:38.903Z,21.38
2024-04-18T08:47:08.027Z,20.67
2024-04-18T08:49:38.143Z,20.73
2024-04-18T08:52:08.038Z,20.88
2024-04-18T08:54:35.707Z,21.40
2024-04-18T08:57:06.363Z,59.67
2024-04-18T08:59:34.257Z,76.78
2024-04-18T09:02:02.478Z,26.23
2024-04-18T09:04:31.338Z,30.45
2024-04-18T09:06:58.547Z,23.95
2024-04-18T09:09:25.864Z,21.75
2024-04-18T09:11:53.065Z,22.17
2024-04-18T09:14:21.610Z,24.38
2024-04-18T09:16:50.299Z,26.58
2024-04-18T09:19:19.530Z,22.92
2024-04-18T09:21:46.753Z,23.02
2024-04-18T09:24:13.935Z,23.95
2024-04-18T09:26:41.615Z,20.05
2024-04-18T09:29:08.808Z,25.92
2024-04-18T09:31:42.408Z,21.80
2024-04-18T09:34:15.521Z,19.60
2024-04-18T09:36:43.465Z,30.30
2024-04-18T09:39:16.981Z,23.70
2024-04-18T09:41:54.654Z,19.48
2024-04-18T09:44:30.057Z,20.48
2024-04-18T09:46:59.662Z,20.30
2024-04-18T09:49:27.480Z,21.73
2024-04-18T09:51:57.116Z,19.30
2024-04-18T09:54:24.769Z,22.65
2024-04-18T09:56:53.289Z,18.80
2024-04-18T09:59:22.300Z,20.40
2024-04-18T10:01:50.361Z,31.45
2024-04-18T10:04:17.710Z,23.33
2024-04-18T10:06:47.727Z,19.70
2024-04-18T10:09:19.438Z,18.50
2024-04-18T10:11:47.058Z,18.38
2024-04-18T10:14:14.811Z,18.85
2024-04-18T10:16:49.850Z,18.85
2024-04-18T10:19:24.551Z,18.90
2024-04-18T10:22:10.855Z,19.10
2024-04-18T10:24:43.903Z,19.00
2024-04-18T10:27:15.793Z,19.15
2024-04-18T10:29:53.876Z,20.05
2024-04-18T10:32:21.150Z,19.60
2024-04-18T10:34:48.348Z,19.23
2024-04-18T10:37:21.597Z,19.45
2024-04-18T10:39:49.407Z,19.60
2024-04-18T10:42:21.304Z,19.90
2024-04-18T10:44:49.270Z,20.80
2024-04-18T10:47:29.945Z,20.33
2024-04-18T10:49:57.182Z,19.63
2024-04-18T10:52:24.659Z,19.10
2024-04-18T10:54:51.839Z,19.25
2024-04-18T10:57:20.050Z,19.20
2024-04-18T10:59:49.136Z,23.92
2024-04-18T11:02:16.469Z,19.63
2024-04-18T11:04:43.757Z,19.38
2024-04-18T11:07:12.527Z,20.13
2024-04-18T11:09:42.425Z,18.23
2024-04-18T11:12:10.141Z,18.65
2024-04-18T11:14:38.007Z,18.55
2024-04-18T11:17:05.576Z,19.20
2024-04-18T11:19:33.688Z,18.73
2024-04-18T11:22:01.917Z,18.17
2024-04-18T11:24:30.331Z,18.02
2024-04-18T11:26:57.822Z,18.42
2024-04-18T11:29:29.100Z,18.50
2024-04-18T11:32:12.532Z,17.85
2024-04-18T11:34:40.108Z,17.85
2024-04-18T11:37:09.159Z,18.48
2024-04-18T11:39:36.430Z,18.90
2024-04-18T11:42:03.629Z,18.48
2024-04-18T11:44:32.212Z,18.35
2024-04-18T11:47:00.733Z,19.00
2024-04-18T11:49:28.043Z,18.75
2024-04-18T11:51:55.257Z,21.83
2024-04-18T11:54:22.478Z,21.60
2024-04-18T11:56:49.749Z,19.90
2024-04-18T11:59:18.197Z,22.30
2024-04-18T12:01:45.375Z,17.50
2024-04-18T12:04:12.583Z,17.17
2024-04-18T12:06:40.049Z,21.73
2024-04-18T12:09:07.356Z,21.15
2024-04-18T12:11:34.859Z,20.38
2024-04-18T12:14:02.085Z,22.00
2024-04-18T12:16:29.355Z,21.77
2024-04-18T12:18:57.218Z,16.90
2024-04-18T12:21:24.345Z,17.50
2024-04-18T12:23:51.508Z,16.75
2024-04-18T12:26:18.661Z,16.65
2024-04-18T12:28:46.522Z,17.67
2024-04-18T12:31:14.055Z,21.88
2024-04-18T12:33:41.260Z,17.25
2024-04-18T12:36:11.140Z,17.35
2024-04-18T12:38:38.377Z,17.35
2024-04-18T12:41:06.440Z,16.92
2024-04-18T12:43:34.097Z,17.05
2024-04-18T12:48:32.025Z,18.70
2024-04-18T12:50:59.495Z,18.92
2024-04-18T12:53:27.104Z,19.27
2024-04-18T12:55:54.238Z,16.85
2024-04-18T12:58:21.462Z,16.70
2024-04-18T13:00:48.824Z,17.23
2024-04-18T13:03:16.808Z,17.08
2024-04-18T13:05:44.074Z,16.95
2024-04-18T13:08:12.256Z,19.77
2024-04-18T13:10:39.397Z,16.73
2024-04-18T13:13:06.685Z,16.25
2024-04-18T13:15:34.050Z,16.10
2024-04-18T13:18:01.348Z,15.88
2024-04-18T13:20:28.617Z,17.13
2024-04-18T13:22:57.337Z,16.77
2024-04-18T13:25:24.574Z,16.80
2024-04-18T13:27:54.641Z,16.65
2024-04-18T13:30:22.338Z,17.85
2024-04-18T13:32:49.696Z,17.75
2024-04-18T13:35:17.004Z,19.23
2024-04-18T13:37:44.191Z,18.77
2024-04-18T13:40:11.835Z,18.85
2024-04-18T13:42:40.283Z,20.65
2024-04-18T13:45:08.942Z,18.80
2024-04-18T13:47:36.304Z,19.15
2024-04-18T13:50:04.305Z,19.00
2024-04-18T13:52:31.398Z,20.17
2024-04-18T13:54:58.576Z,18.17
2024-04-18T13:57:25.792Z,17.88
2024-04-18T13:59:54.923Z,18.30
2024-04-18T14:02:22.125Z,18.55
2024-04-18T14:04:49.435Z,22.35
2024-04-18T14:07:16.744Z,17.88
2024-04-18T14:09:45.901Z,18.65
2024-04-18T14:12:13.699Z,18.70
2024-04-18T14:14:41.065Z,18.63
2024-04-18T14:17:26.953Z,18.00
2024-04-18T14:19:56.550Z,17.95
2024-04-18T14:22:24.510Z,17.55
2024-04-18T14:24:51.697Z,18.33
2024-04-18T14:27:18.860Z,20.13
2024-04-18T14:29:46.041Z,23.45
2024-04-18T14:32:13.206Z,23.55
2024-04-18T14:34:40.367Z,24.80
2024-04-18T14:37:10.282Z,25.48
2024-04-18T14:39:38.098Z,24.95
2024-04-18T14:42:05.487Z,25.27
2024-04-18T14:44:33.899Z,24.88
2024-04-18T14:47:01.103Z,25.17
2024-04-18T14:49:32.319Z,25.17
2024-04-18T14:51:59.452Z,25.25
2024-04-18T14:54:26.818Z,24.85
2024-04-18T14:56:54.468Z,27.27
2024-04-18T14:59:21.609Z,26.13
2024-04-18T15:01:48.705Z,27.30
2024-04-18T15:04:17.472Z,27.15
2024-04-18T15:06:44.853Z,24.65
2024-04-18T15:09:13.470Z,22.50
2024-04-18T15:11:40.783Z,21.80
2024-04-18T15:14:08.578Z,21.20
2024-04-18T15:16:36.014Z,18.98
2024-04-18T15:19:03.616Z,18.75
2024-04-18T15:21:30.912Z,19.08
2024-04-18T15:23:59.791Z,19.33
2024-04-18T15:26:26.970Z,18.95
2024-04-18T15:28:54.092Z,21.67
2024-04-18T15:31:21.268Z,22.20
2024-04-18T15:33:48.397Z,18.25
2024-04-18T15:36:15.702Z,21.63
2024-04-18T15:38:42.911Z,21.13
2024-04-18T15:41:10.046Z,21.75
2024-04-18T15:43:37.405Z,21.40
2024-04-18T15:46:05.004Z,23.27
2024-04-18T15:48:32.446Z,21.33
2024-04-18T15:50:59.968Z,18.20
2024-04-18T15:53:27.079Z,21.75
2024-04-18T15:55:54.257Z,22.30
2024-04-18T15:58:21.360Z,21.80
2024-04-18T16:00:49.530Z,22.13
2024-04-18T16:03:16.909Z,22.33
2024-04-18T16:05:44.126Z,18.40
2024-04-18T16:08:12.743Z,18.33
2024-04-18T16:10:41.267Z,18.30
2024-04-18T16:13:08.420Z,17.85
2024-04-18T16:15:35.625Z,21.70
2024-04-18T16:18:03.714Z,20.75
2024-04-18T16:20:31.007Z,21.02
2024-04-18T16:23:04.396Z,18.33
2024-04-18T16:25:36.061Z,18.47
2024-04-18T16:28:03.605Z,18.38
2024-04-18T16:30:32.007Z,18.77
2024-04-18T16:32:59.634Z,18.40
2024-04-18T16:35:26.750Z,18.98
2024-04-18T16:37:53.971Z,19.45
2024-04-18T16:40:21.220Z,19.02
2024-04-18T16:42:48.289Z,18.60
2024-04-18T16:45:15.565Z,19.58
2024-04-18T16:47:42.821Z,19.33
2024-04-18T16:50:11.144Z,18.40
2024-04-18T16:52:38.247Z,18.60
2024-04-18T16:55:05.756Z,17.92
2024-04-18T16:57:34.382Z,18.40
2024-04-18T17:00:04.037Z,18.50
2024-04-18T17:02:31.288Z,18.50
2024-04-18T17:04:58.636Z,18.45
2024-04-18T17:07:25.800Z,19.20
2024-04-18T17:09:53.013Z,19.17
2024-04-18T17:12:20.800Z,19.05
2024-04-18T17:14:51.631Z,18.67
2024-04-18T17:17:18.917Z,18.88
2024-04-18T17:19:46.051Z,18.90
2024-04-18T17:22:13.225Z,18.70
2024-04-18T17:24:40.568Z,18.77
2024-04-18T17:27:07.876Z,18.25
2024-04-18T17:29:35.333Z,19.35
2024-04-18T17:32:02.520Z,19.83
2024-04-18T17:34:30.314Z,18.17
2024-04-18T17:36:57.576Z,17.67
2024-04-18T17:39:24.847Z,18.90
2024-04-18T17:41:53.281Z,18.55
2024-04-18T17:44:20.484Z,18.30
2024-04-18T17:46:47.682Z,18.63
2024-04-18T17:49:14.908Z,18.45
2024-04-18T17:51:42.160Z,18.33
2024-04-18T17:54:09.415Z,18.55
2024-04-18T17:56:36.530Z,17.80
2024-04-18T17:59:03.662Z,19.02
2024-04-18T18:01:32.114Z,20.52
2024-04-18T18:03:59.259Z,18.50
2024-04-18T18:06:26.478Z,18.48
2024-04-18T18:08:53.604Z,19.60
2024-04-18T18:11:20.873Z,20.52
2024-04-18T18:13:49.326Z,19.20
2024-04-18T18:16:17.639Z,18.58
2024-04-18T18:18:44.933Z,19.02
2024-04-18T18:21:12.173Z,18.92
2024-04-18T18:23:39.386Z,18.88
2024-04-18T18:26:06.925Z,18.80
2024-04-18T18:28:34.049Z,18.70
2024-04-18T18:31:01.512Z,19.23
2024-04-18T18:33:29.055Z,19.08
2024-04-18T18:35:56.441Z,18.80
2024-04-18T18:38:23.771Z,18.55
2024-04-18T18:40:51.005Z,18.77
2024-04-18T18:43:18.182Z,18.73
2024-04-18T18:45:45.370Z,19.10
2024-04-18T18:48:13.197Z,19.85
2024-04-18T18:50:43.612Z,19.42
2024-04-18T18:53:10.748Z,20.13
2024-04-18T18:55:37.972Z,19.85
2024-04-18T18:58:05.333Z,19.98
2024-04-18T19:00:36.157Z,19.80
2024-04-18T19:03:05.160Z,19.15
2024-04-18T19:05:32.839Z,19.35
2024-04-18T19:08:00.030Z,20.08
2024-04-18T19:10:27.220Z,20.05
2024-04-18T19:12:54.393Z,20.42
2024-04-18T19:15:21.625Z,20.25
2024-04-18T19:17:52.059Z,20.38
2024-04-18T19:20:19.383Z,20.85
2024-04-18T19:22:46.597Z,20.23
2024-04-18T19:25:14.095Z,20.23
2024-04-18T19:27:41.480Z,22.05
2024-04-18T19:30:09.202Z,20.30
2024-04-18T19:32:36.508Z,21.42
2024-04-18T19:35:03.907Z,22.80
2024-04-18T19:37:30.998Z,22.13
2024-04-18T19:39:58.167Z,21.15
2024-04-18T19:42:25.425Z,20.92
2024-04-18T19:44:55.660Z,20.55
2024-04-18T19:47:22.835Z,19.80
2024-04-18T19:49:50.013Z,20.08
2024-04-18T19:52:17.848Z,20.95
2024-04-18T19:54:46.505Z,20.17
2024-04-18T19:57:13.628Z,21.42
2024-04-18T19:59:41.717Z,20.85
2024-04-18T20:02:09.485Z,20.60
2024-04-18T20:04:36.904Z,20.58
2024-04-18T20:07:04.204Z,20.60
2024-04-18T20:09:33.645Z,20.88
2024-04-18T20:12:02.262Z,20.17
2024-04-18T20:14:29.933Z,20.98
2024-04-18T20:16:57.142Z,20.95
2024-04-18T20:19:25.124Z,20.58
2024-04-18T20:21:52.383Z,20.70
2024-04-18T20:24:20.626Z,20.00
2024-04-18T20:26:47.870Z,20.15
2024-04-18T20:29:17.531Z,20.00
2024-04-18T20:31:44.668Z,20.05
2024-04-18T20:34:11.780Z,20.63
2024-04-18T20:36:39.145Z,20.60
2024-04-18T20:39:06.558Z,21.10
2024-04-18T20:41:33.688Z,21.70
2024-04-18T20:44:00.815Z,22.08
2024-04-18T20:46:31.222Z,22.20
2024-04-18T20:48:58.535Z,23.08
2024-04-18T20:51:25.744Z,22.20
2024-04-18T20:53:52.893Z,22.00
2024-04-18T20:56:20.060Z,22.05
2024-04-18T20:58:47.274Z,22.15
2024-04-18T21:01:14.534Z,21.70
2024-04-18T21:03:41.937Z,22.13
2024-04-18T21:06:09.108Z,22.17
2024-04-18T21:08:36.276Z,21.90
2024-04-18T21:11:03.559Z,21.92
2024-04-18T21:13:30.778Z,21.80
2024-04-18T21:16:00.135Z,21.80
2024-04-18T21:18:28.603Z,22.23
2024-04-18T21:20:55.975Z,22.02
2024-04-18T21:23:23.140Z,22.83
2024-04-18T21:25:50.252Z,22.13
2024-04-18T21:28:17.680Z,22.20
2024-04-18T21:30:45.103Z,21.73
2024-04-18T21:33:12.427Z,22.27
2024-04-18T21:35:39.767Z,23.55
2024-04-18T21:38:07.000Z,22.75
2024-04-18T21:40:34.301Z,23.35
2024-04-18T21:43:04.304Z,23.20
2024-04-18T21:45:33.127Z,22.83
2024-04-18T21:48:01.128Z,23.50
2024-04-18T21:50:28.429Z,23.95
2024-04-18T21:52:55.598Z,23.45
2024-04-18T21:55:22.762Z,23.45
2024-04-18T21:57:50.155Z,23.83
2024-04-18T22:00:17.685Z,23.58
2024-04-18T22:02:44.933Z,23.02
2024-04-18T22:05:12.581Z,26.23
2024-04-18T22:07:39.864Z,24.88
2024-04-18T22:10:07.954Z,24.88
2024-04-18T22:12:35.137Z,24.52
2024-04-18T22:15:02.710Z,24.65
2024-04-18T22:17:31.165Z,26.63
2024-04-18T22:19:58.643Z,26.85
2024-04-18T22:22:25.857Z,26.15
2024-04-18T22:24:53.036Z,30.02
2024-04-18T22:27:20.388Z,28.08
2024-04-18T22:29:47.576Z,29.50
2024-04-18T22:32:14.700Z,27.35
2024-04-18T22:34:41.878Z,27.15
2024-04-18T22:37:09.142Z,27.70
2024-04-18T22:39:36.289Z,27.52
2024-04-18T22:42:04.024Z,27.50
2024-04-18T22:44:31.230Z,29.60
2024-04-18T22:46:58.332Z,28.83
2024-04-18T22:49:25.473Z,31.52
2024-04-18T22:51:52.634Z,32.33
2024-04-18T22:54:19.906Z,31.13
2024-04-18T22:56:47.091Z,31.75
2024-04-18T22:59:14.221Z,32.22
2024-04-18T23:01:41.488Z,30.67
2024-04-18T23:04:08.900Z,31.92
2024-04-18T23:06:36.177Z,34.55
2024-04-18T23:09:04.563Z,31.10
2024-04-18T23:11:31.705Z,30.63
2024-04-18T23:13:58.846Z,30.33
2024-04-18T23:16:25.956Z,30.67
2024-04-18T23:18:53.153Z,28.52
2024-04-18T23:21:20.468Z,29.67
2024-04-18T23:23:47.681Z,31.50
2024-04-18T23:26:14.885Z,29.63
2024-04-18T23:28:42.088Z,30.50
2024-04-18T23:31:09.745Z,30.65
2024-04-18T23:33:36.949Z,29.38
2024-04-18T23:36:04.423Z,32.72
2024-04-18T23:38:31.545Z,28.95
2024-04-18T23:40:58.698Z,27.42
2024-04-18T23:43:25.903Z,30.23
2024-04-18T23:45:53.095Z,30.02
2024-04-18T23:48:20.434Z,29.83
2024-04-18T23:50:47.721Z,30.25
2024-04-18T23:53:14.873Z,29.73
2024-04-18T23:55:42.119Z,31.27
2024-04-18T23:58:09.340Z,30.33
